map of NOP home
Great Circle Mapper logo
NOP - Airport
Location
City:  Sinop, Turkey
Name:Sinop Airport
ICAO / IATA:LTCM / NOP

Details
Type:Airport (Aerodrome, Airfield)
Use:Public/Civil
Latitude:4200'57"N (42.015833)
Longitude:3503'59"E (35.066389)
Elevation:3524 ft (1074 m)
Variation:6.02E (WMM2015 magnetic declination)
0.10 annual change
Runways:1
Longest:5420 × 98 ft (1652 × 30 m), paved

Time
Time Zone:UTC+2 (DST+3)
Local Time:

Weather
METAR:LTCM 020524Z 26007KT 8000 -TSRA FEW025CB SCT030 BKN090 24/21 Q1016 RETS RMK RWY05 26006KT

Related Locations
Nearby:
Farthest:NTAV: 11171 mi / 17977 km
Raivavae, Tubuai Islands, Austral Islands, PF

Find:

   beyond  
but within

Other Information
Maps:
NOTAMs:
Links:
Sources:

  
flag of Turkey   

Sectional Chart

Flight Planning
at skyvector.com

Satellite Image

Google Maps Satellite view

 

Copyright © 2004-2015 Karl L. Swartz. All rights reserved.
The Great Circle Mapper name and logo are trademarks of the Great Circle Mapper.
All other trademarks mentioned herein belong to their respective owners.
Please see credits for attibutions and further copyright information.

  Follow gcmap on Facebook Follow gcmap on Twitter Follow gcmap on Google+

hCard Microformat

Geo Microformat